Pagrindinis puslapis
METAR-TAF:

METAR-TAF

Oro uostai :

Brønnøysund, Norvegija

platuma: 65-28N, ilguma: 012-13E, Aukštis: 0 m

Dabartinis oras

Ataskaita buvo paskelbta 38 minutes, ne 13:20 UTC
Vėjas 6 kt iš Pietų/Pietvakarių, svyruoja nuo Pietų ir Vakarų/Pietvakarių
Temperatūra 1°C
Drėgmė 86%
Slėgis 1002 hPa
Matomumas: 2500 m
sniegas

METAR: ENBN 191320Z 21006KT 180V240 2500 SN VV012 01/M01 Q1002

Laikas: 14:58 (13:58 UTC)

Prognozė

Ataskaita buvo paskelbta 2 valandos ir 58 minutes, ne 11:00 UTC
Prognozė galioja nuo 19 metu 12 UTC su 19 metu 21 UTC
Vėjas 5 kt nuo kintamojo kryptimis
Matomumas 10 km arba daugiau
Mažai debesys ne aukštis 300 ft
Išsisklaidę debesys ne aukštis 1200 ft, Liūtiniai kamuoliniai debesys.
Laikinai
nuo 19 metu 12 UTC su 19 metu 18 UTC
Matomumas: 2500 m
ne aukštis 800 ft
sniegas, ledo ar sniego kruopos

TAF: ENBN 191100Z 1912/1921 VRB05KT 9999 FEW003 SCT012CB TEMPO 1912/1918 2500 -SHSNGS VV008

Orai ataskaitas ir orų prognozės (METAR, TAF).

turimą stotys yra geltonos ir raudonos taškus žemėlapyje.

Perkelti pele per norėdami pamatyti stoties vardą.

Tada spustelėkite, norėdami matyti oro stebėjimo ir prognozės.

Norėdami pakeisti žemėlapį: spustelėkite ant žalios mygtukų su juodo kryžiaus žemyn,; žalią mygtuką su brūkšneliu, jei norite nutolinti; arba žalių rodyklių gretimoms žemėlapius.


METAR-TAF: